Terminal Aerodrome Forecast
Issued by NWS Sterling, VA

Home | Current Version | Previous Version | Text Only | Print | Product List | Glossary On
Versions: 1 2 3 4 5 6 7 8 9 10 11 12 13 14 15 16
000
FTUS41 KLWX 290900 AAA
TAFBWI
TAF AMD
KBWI 290904Z 2909/3012 34005KT P6SM -RA OVC040
     FM291100 01004KT P6SM OVC060
     FM291500 03006KT P6SM BKN100
     FM300600 03006KT P6SM OVC045=

USA.gov is the U.S. government's official web portal to all federal, state and local government web resources and services.